Houghton, Michigan
Current Conditions -  °F | °C
As of 11:53 PM on Friday 24 Oct 2014 (Local Time) from KCMX Reporting Station
Clear Clear  
Wind Chill: 58°   Ceiling: Unl
Heat Index: 58°   Visibility: 10mi
Dew Point: 48°   Wind: 13mph
Humidity: 70%   Direction: 250°WSW
Pressure: 29.67"   Gusts: 25mph
Location:  47.12°N, 88.57°W
Report Text: KCMX 250353Z AUTO 25011G22KT 10SM CLR 14/09 A2967 RMK AO2 SLP051 T01440089
Loading
Personal Weather Stations






























Interactive Weather Map
Tropical Storm Tracking
New forecast layout! Learn more

10-Day Weather Forecast

Advertisements
Track Severe Weather on mobile